createdAt,value
2023-01-09T00:01:24.775Z,28.83
2023-01-09T00:03:53.291Z,36.20
2023-01-09T00:06:20.973Z,34.97
2023-01-09T00:08:48.587Z,31.65
2023-01-09T00:11:15.869Z,32.55
2023-01-09T00:13:43.764Z,31.55
2023-01-09T00:16:11.443Z,28.77
2023-01-09T00:18:39.144Z,30.67
2023-01-09T00:21:08.602Z,31.65
2023-01-09T00:23:36.413Z,33.22
2023-01-09T00:26:04.816Z,33.72
2023-01-09T00:28:33.178Z,32.58
2023-01-09T00:31:02.900Z,30.10
2023-01-09T00:33:33.863Z,34.22
2023-01-09T00:36:01.221Z,30.17
2023-01-09T00:38:29.216Z,35.30
2023-01-09T00:40:57.045Z,33.08
2023-01-09T00:43:28.413Z,30.42
2023-01-09T00:45:55.788Z,30.27
2023-01-09T00:48:27.218Z,30.08
2023-01-09T00:50:58.004Z,31.02
2023-01-09T00:53:29.645Z,34.22
2023-01-09T00:55:59.989Z,29.23
2023-01-09T00:58:27.721Z,31.67
2023-01-09T01:00:55.213Z,31.40
2023-01-09T01:03:23.272Z,31.83
2023-01-09T01:06:09.006Z,28.83
2023-01-09T01:08:36.953Z,26.40
2023-01-09T01:11:13.106Z,20.33
2023-01-09T01:13:41.793Z,27.65
2023-01-09T01:16:11.962Z,28.90
2023-01-09T01:18:40.243Z,29.25
2023-01-09T01:22:20.045Z,29.00
2023-01-09T01:25:18.818Z,29.98
2023-01-09T01:27:46.345Z,29.50
2023-01-09T01:30:16.725Z,28.85
2023-01-09T01:32:44.453Z,28.88
2023-01-09T01:35:12.431Z,30.00
2023-01-09T01:37:39.711Z,29.48
2023-01-09T01:40:08.724Z,29.77
2023-01-09T01:42:35.810Z,28.10
2023-01-09T01:45:08.776Z,29.58
2023-01-09T01:48:05.121Z,31.02
2023-01-09T01:50:43.744Z,29.60
2023-01-09T01:53:10.981Z,29.33
2023-01-09T01:55:42.041Z,29.13
2023-01-09T01:58:10.713Z,29.58
2023-01-09T02:00:42.547Z,29.13
2023-01-09T02:03:10.241Z,28.67
2023-01-09T02:05:39.529Z,29.23
2023-01-09T02:08:07.932Z,30.45
2023-01-09T02:10:37.708Z,29.25
2023-01-09T02:13:05.355Z,29.55
2023-01-09T02:15:56.949Z,29.95
2023-01-09T02:18:36.479Z,29.77
2023-01-09T02:21:34.578Z,31.00
2023-01-09T02:24:05.078Z,28.52
2023-01-09T02:27:01.952Z,30.13
2023-01-09T02:30:06.541Z,27.42
2023-01-09T02:32:40.673Z,29.23
2023-01-09T02:35:45.347Z,28.95
2023-01-09T02:38:34.625Z,28.00
2023-01-09T02:41:11.846Z,29.50
2023-01-09T02:43:40.301Z,30.30
2023-01-09T02:46:19.364Z,29.95
2023-01-09T02:48:47.118Z,26.13
2023-01-09T02:51:39.955Z,29.17
2023-01-09T02:54:17.240Z,29.17
2023-01-09T02:57:10.725Z,28.40
2023-01-09T02:59:59.875Z,29.80
2023-01-09T03:03:12.035Z,30.98
2023-01-09T03:05:44.957Z,30.52
2023-01-09T03:08:16.689Z,30.27
2023-01-09T03:11:00.223Z,29.17
2023-01-09T03:16:01.269Z,28.35
2023-01-09T03:18:30.187Z,29.20
2023-01-09T03:20:58.224Z,32.58
2023-01-09T03:23:25.659Z,30.13
2023-01-09T03:25:53.239Z,29.20
2023-01-09T03:28:30.065Z,28.88
2023-01-09T03:30:57.673Z,30.40
2023-01-09T03:33:24.960Z,29.10
2023-01-09T03:35:52.514Z,30.15
2023-01-09T03:38:19.803Z,28.65
2023-01-09T03:40:47.514Z,29.92
2023-01-09T03:43:15.035Z,29.08
2023-01-09T03:45:43.499Z,30.02
2023-01-09T03:48:10.893Z,29.15
2023-01-09T03:50:38.546Z,30.55
2023-01-09T03:53:05.828Z,28.38
2023-01-09T03:55:33.438Z,27.55
2023-01-09T03:58:01.204Z,30.00
2023-01-09T04:00:29.044Z,28.17
2023-01-09T04:02:56.293Z,27.95
2023-01-09T04:05:24.124Z,27.52
2023-01-09T04:07:51.387Z,26.58
2023-01-09T04:10:19.033Z,25.33
2023-01-09T04:12:46.412Z,26.58
2023-01-09T04:15:14.017Z,29.98
2023-01-09T04:17:41.258Z,26.88
2023-01-09T04:20:11.415Z,26.58
2023-01-09T04:22:38.719Z,27.20
2023-01-09T04:25:07.181Z,28.15
2023-01-09T04:27:34.474Z,32.67
2023-01-09T04:30:02.238Z,29.75
2023-01-09T04:32:29.685Z,29.20
2023-01-09T04:34:57.790Z,28.65
2023-01-09T04:37:25.000Z,25.05
2023-01-09T04:39:55.033Z,30.65
2023-01-09T04:42:22.404Z,28.65
2023-01-09T04:44:53.865Z,29.33
2023-01-09T04:47:21.875Z,29.00
2023-01-09T04:49:49.545Z,28.50
2023-01-09T04:52:16.883Z,28.20
2023-01-09T04:54:44.537Z,29.30
2023-01-09T04:57:11.896Z,27.50
2023-01-09T04:59:39.371Z,30.23
2023-01-09T05:02:07.069Z,30.38
2023-01-09T05:04:34.857Z,28.13
2023-01-09T05:07:02.465Z,30.27
2023-01-09T05:09:30.119Z,29.88
2023-01-09T05:11:57.548Z,30.50
2023-01-09T05:14:25.252Z,28.52
2023-01-09T05:16:52.417Z,31.30
2023-01-09T05:19:20.274Z,27.02
2023-01-09T05:21:47.641Z,27.45
2023-01-09T05:24:15.266Z,26.52
2023-01-09T05:26:42.629Z,27.63
2023-01-09T05:29:10.181Z,26.17
2023-01-09T05:31:37.675Z,29.55
2023-01-09T05:34:05.429Z,27.10
2023-01-09T05:36:32.915Z,26.48
2023-01-09T05:39:02.528Z,28.38
2023-01-09T05:41:29.724Z,27.08
2023-01-09T05:43:57.107Z,26.33
2023-01-09T05:46:24.467Z,28.02
2023-01-09T05:48:52.183Z,26.60
2023-01-09T05:51:19.489Z,25.20
2023-01-09T05:53:46.955Z,27.77
2023-01-09T05:56:14.271Z,25.02
2023-01-09T05:58:42.155Z,25.80
2023-01-09T06:01:09.618Z,26.02
2023-01-09T06:03:37.326Z,26.45
2023-01-09T06:06:04.801Z,25.55
2023-01-09T06:08:32.311Z,26.85
2023-01-09T06:10:59.693Z,25.90
2023-01-09T06:13:27.668Z,27.33
2023-01-09T06:15:54.886Z,27.33
2023-01-09T06:18:22.456Z,26.65
2023-01-09T06:20:49.833Z,27.05
2023-01-09T06:23:17.440Z,24.45
2023-01-09T06:25:44.834Z,24.92
2023-01-09T06:28:12.453Z,26.42
2023-01-09T06:30:39.923Z,25.77
2023-01-09T06:33:07.572Z,26.70
2023-01-09T06:35:34.889Z,24.45
2023-01-09T06:38:03.585Z,25.65
2023-01-09T06:40:30.857Z,26.48
2023-01-09T06:42:58.521Z,26.73
2023-01-09T06:45:25.783Z,25.58
2023-01-09T06:47:53.429Z,23.80
2023-01-09T06:50:20.866Z,19.60
2023-01-09T06:52:48.731Z,23.48
2023-01-09T06:55:17.909Z,22.75
2023-01-09T06:57:45.566Z,20.85
2023-01-09T07:00:13.386Z,22.83
2023-01-09T07:02:41.060Z,21.75
2023-01-09T07:05:09.169Z,23.02
2023-01-09T07:07:37.143Z,21.30
2023-01-09T07:10:05.771Z,22.83
2023-01-09T07:12:33.704Z,23.48
2023-01-09T07:15:01.646Z,24.15
2023-01-09T07:17:30.132Z,22.77
2023-01-09T07:19:57.728Z,22.63
2023-01-09T07:22:25.259Z,24.55
2023-01-09T07:24:52.503Z,25.67
2023-01-09T07:27:20.046Z,25.33
2023-01-09T07:29:47.557Z,21.73
2023-01-09T07:32:15.224Z,25.05
2023-01-09T07:34:42.446Z,24.73
2023-01-09T07:37:10.169Z,25.02
2023-01-09T07:39:37.451Z,25.60
2023-01-09T07:42:05.103Z,20.30
2023-01-09T07:44:33.555Z,23.42
2023-01-09T07:47:01.261Z,24.15
2023-01-09T07:49:28.755Z,20.27
2023-01-09T07:51:56.530Z,23.92
2023-01-09T07:54:23.888Z,23.80
2023-01-09T07:56:51.553Z,22.33
2023-01-09T07:59:18.774Z,21.73
2023-01-09T08:01:46.579Z,21.27
2023-01-09T08:04:13.909Z,21.95
2023-01-09T08:06:41.581Z,21.52
2023-01-09T08:09:09.209Z,22.33
2023-01-09T08:11:36.679Z,22.30
2023-01-09T08:14:04.339Z,22.35
2023-01-09T08:16:31.576Z,21.58
2023-01-09T08:18:59.481Z,23.13
2023-01-09T08:21:26.649Z,21.63
2023-01-09T08:23:54.136Z,21.75
2023-01-09T08:26:21.433Z,21.52
2023-01-09T08:28:48.990Z,22.38
2023-01-09T08:31:16.682Z,18.73
2023-01-09T08:33:44.364Z,23.10
2023-01-09T08:36:11.763Z,21.52
2023-01-09T08:38:39.445Z,22.58
2023-01-09T08:41:25.348Z,23.77
2023-01-09T08:44:11.586Z,22.92
2023-01-09T08:46:57.196Z,20.42
2023-01-09T08:49:25.010Z,21.15
2023-01-09T08:51:52.297Z,21.92
2023-01-09T08:54:19.921Z,22.40
2023-01-09T08:56:47.269Z,23.15
2023-01-09T08:59:15.775Z,24.20
2023-01-09T09:01:43.051Z,22.92
2023-01-09T09:04:10.808Z,24.20
2023-01-09T09:06:38.112Z,23.23
2023-01-09T09:09:07.006Z,23.60
2023-01-09T09:11:34.537Z,25.17
2023-01-09T09:14:24.361Z,24.38
2023-01-09T09:16:53.353Z,21.75
2023-01-09T09:19:21.018Z,20.38
2023-01-09T09:21:48.645Z,23.10
2023-01-09T09:24:16.405Z,22.25
2023-01-09T09:26:44.660Z,23.33
2023-01-09T09:29:12.596Z,22.08
2023-01-09T09:31:39.875Z,23.83
2023-01-09T09:34:08.597Z,22.15
2023-01-09T09:36:35.927Z,21.50
2023-01-09T09:39:03.863Z,22.70
2023-01-09T09:42:10.037Z,22.20
2023-01-09T09:45:08.285Z,23.77
2023-01-09T09:47:47.870Z,24.23
2023-01-09T09:50:52.982Z,24.75
2023-01-09T09:53:46.191Z,23.85
2023-01-09T09:59:03.817Z,21.80
2023-01-09T10:01:38.490Z,20.00
2023-01-09T10:04:11.465Z,20.42
2023-01-09T10:06:49.112Z,22.25
2023-01-09T10:09:24.620Z,15.57
2023-01-09T10:11:58.317Z,20.27
2023-01-09T10:14:25.875Z,21.48
2023-01-09T10:16:59.449Z,21.13
2023-01-09T10:19:31.255Z,21.00
2023-01-09T10:22:25.122Z,21.60
2023-01-09T10:25:11.374Z,21.67
2023-01-09T10:27:51.390Z,20.45
2023-01-09T10:30:49.197Z,23.52
2023-01-09T10:33:41.540Z,21.27
2023-01-09T10:36:17.998Z,17.90
2023-01-09T10:38:48.557Z,19.98
2023-01-09T10:41:23.351Z,20.00
2023-01-09T10:44:01.571Z,19.02
2023-01-09T10:46:49.157Z,20.60
2023-01-09T10:49:17.885Z,21.33
2023-01-09T10:51:50.642Z,20.75
2023-01-09T10:54:23.707Z,20.00
2023-01-09T10:56:55.740Z,21.48
2023-01-09T10:59:24.311Z,21.40
2023-01-09T11:01:51.720Z,24.02
2023-01-09T11:04:29.267Z,22.35
2023-01-09T11:06:59.816Z,21.17
2023-01-09T11:09:27.559Z,20.40
2023-01-09T11:11:54.967Z,21.35
2023-01-09T11:14:33.059Z,20.92
2023-01-09T11:17:03.405Z,23.60
2023-01-09T11:19:33.649Z,28.35
2023-01-09T11:22:25.236Z,25.45
2023-01-09T11:25:13.061Z,23.92
2023-01-09T11:27:40.554Z,25.10
2023-01-09T11:30:20.195Z,25.27
2023-01-09T11:32:48.250Z,23.67
2023-01-09T11:35:28.658Z,23.98
2023-01-09T11:38:20.826Z,23.00
2023-01-09T11:40:54.503Z,22.48
2023-01-09T11:43:44.671Z,23.98
2023-01-09T11:46:31.032Z,22.98
2023-01-09T11:48:59.463Z,23.83
2023-01-09T11:51:32.416Z,23.10
2023-01-09T11:54:19.571Z,23.73
2023-01-09T11:56:47.800Z,21.80
2023-01-09T11:59:17.525Z,25.38
2023-01-09T12:02:07.025Z,26.80
2023-01-09T12:04:36.250Z,23.60
2023-01-09T12:07:41.615Z,22.75
2023-01-09T12:10:31.060Z,24.65
2023-01-09T12:13:27.366Z,25.55
2023-01-09T12:16:16.318Z,26.02
2023-01-09T12:19:21.290Z,29.70
2023-01-09T12:22:26.111Z,30.50
2023-01-09T12:24:56.776Z,26.92
2023-01-09T12:27:48.998Z,29.20
2023-01-09T12:30:33.324Z,31.23
2023-01-09T12:33:06.531Z,28.60
2023-01-09T12:35:41.266Z,28.50
2023-01-09T12:38:46.734Z,34.20
2023-01-09T12:41:40.070Z,30.27
2023-01-09T12:44:36.025Z,28.67
2023-01-09T12:47:24.427Z,30.75
2023-01-09T12:50:23.829Z,33.35
2023-01-09T12:53:08.548Z,33.17
2023-01-09T12:56:09.271Z,31.35
2023-01-09T12:58:42.509Z,30.73
2023-01-09T13:01:15.335Z,30.40
2023-01-09T13:06:16.963Z,28.90
2023-01-09T13:09:21.021Z,29.02
2023-01-09T13:11:59.380Z,25.98
2023-01-09T13:14:51.866Z,33.75
2023-01-09T13:17:24.048Z,26.85
2023-01-09T13:19:53.416Z,31.40
2023-01-09T13:22:21.558Z,30.70
2023-01-09T13:25:15.112Z,29.45
2023-01-09T13:27:47.472Z,30.40
2023-01-09T13:30:33.861Z,32.90
2023-01-09T13:33:07.594Z,29.23
2023-01-09T13:35:50.415Z,34.65
2023-01-09T13:38:20.216Z,29.33
2023-01-09T13:40:48.301Z,29.33
2023-01-09T13:43:16.845Z,30.05
2023-01-09T13:45:51.163Z,30.77
2023-01-09T13:48:26.832Z,29.83
2023-01-09T13:51:33.142Z,31.55
2023-01-09T13:54:00.536Z,30.92
2023-01-09T13:56:28.245Z,29.63
2023-01-09T13:58:55.225Z,26.83
2023-01-09T14:01:25.763Z,31.13
2023-01-09T14:04:15.348Z,28.05
2023-01-09T14:07:26.106Z,27.92
2023-01-09T14:10:00.211Z,23.38
2023-01-09T14:12:30.279Z,30.73
2023-01-09T14:15:02.505Z,31.35
2023-01-09T14:17:33.518Z,25.23
2023-01-09T14:20:03.566Z,27.65
2023-01-09T14:22:42.489Z,28.50
2023-01-09T14:27:51.956Z,30.77
2023-01-09T14:30:47.325Z,31.52
2023-01-09T14:33:18.701Z,31.52
2023-01-09T14:36:04.455Z,35.55
2023-01-09T14:38:42.716Z,35.47
2023-01-09T14:41:10.100Z,40.35
2023-01-09T14:43:58.463Z,34.05
2023-01-09T14:46:26.016Z,30.50
2023-01-09T14:49:06.488Z,30.50
2023-01-09T14:51:37.047Z,29.67
2023-01-09T14:54:27.905Z,29.30
2023-01-09T14:56:55.508Z,29.55
2023-01-09T14:59:23.089Z,29.92
2023-01-09T15:01:51.813Z,29.85
2023-01-09T15:04:31.790Z,29.52
2023-01-09T15:06:59.481Z,30.00
2023-01-09T15:09:31.469Z,31.63
2023-01-09T15:12:04.099Z,29.75
2023-01-09T15:14:45.562Z,30.58
2023-01-09T15:17:22.766Z,31.05
2023-01-09T15:19:51.080Z,33.47
2023-01-09T15:22:37.277Z,36.45
2023-01-09T15:25:38.528Z,31.98
2023-01-09T15:28:27.026Z,46.10
2023-01-09T15:30:58.580Z,43.72
2023-01-09T15:33:26.005Z,31.13
2023-01-09T15:36:00.203Z,27.83
2023-01-09T15:38:29.278Z,28.60
2023-01-09T15:41:04.999Z,35.67
2023-01-09T15:43:33.406Z,31.55
2023-01-09T15:46:01.300Z,28.60
2023-01-09T15:48:33.831Z,27.67
2023-01-09T15:51:10.504Z,30.05
2023-01-09T15:53:40.555Z,29.85
2023-01-09T15:56:30.823Z,29.30
2023-01-09T15:58:59.276Z,30.58
2023-01-09T16:01:34.193Z,27.98
2023-01-09T16:04:18.672Z,29.60
2023-01-09T16:06:51.229Z,32.22
2023-01-09T16:09:31.430Z,28.90
2023-01-09T16:12:01.222Z,29.13
2023-01-09T16:14:38.811Z,29.33
2023-01-09T16:17:12.243Z,27.67
2023-01-09T16:22:28.885Z,27.73
2023-01-09T16:25:01.600Z,30.42
2023-01-09T16:30:06.172Z,27.60
2023-01-09T16:35:08.276Z,27.55
2023-01-09T16:37:37.597Z,27.45
2023-01-09T16:40:17.233Z,29.27
2023-01-09T16:43:04.396Z,27.83
2023-01-09T16:45:37.117Z,25.67
2023-01-09T16:48:25.231Z,28.55
2023-01-09T16:50:52.656Z,25.35
2023-01-09T16:53:24.299Z,28.13
2023-01-09T16:55:53.514Z,25.88
2023-01-09T16:58:27.092Z,27.80
2023-01-09T17:00:54.568Z,28.08
2023-01-09T17:03:22.554Z,27.00
2023-01-09T17:05:51.993Z,25.98
2023-01-09T17:08:34.386Z,26.33
2023-01-09T17:11:02.005Z,25.30
2023-01-09T17:13:30.597Z,26.33
2023-01-09T17:15:59.003Z,25.08
2023-01-09T17:18:28.043Z,26.10
2023-01-09T17:20:57.265Z,26.23
2023-01-09T17:23:28.980Z,26.73
2023-01-09T17:26:18.599Z,25.55
2023-01-09T17:28:49.205Z,29.27
2023-01-09T17:31:17.347Z,29.02
2023-01-09T17:33:45.272Z,29.73
2023-01-09T17:36:26.889Z,31.02
2023-01-09T17:38:57.378Z,31.77
2023-01-09T17:41:27.008Z,29.88
2023-01-09T17:43:55.519Z,29.25
2023-01-09T17:46:44.044Z,31.27
2023-01-09T17:49:17.588Z,30.65
2023-01-09T17:54:13.090Z,30.13
2023-01-09T17:56:43.395Z,29.05
2023-01-09T17:59:13.243Z,31.48
2023-01-09T18:01:41.202Z,30.92
2023-01-09T18:04:09.215Z,32.13
2023-01-09T18:06:37.046Z,30.98
2023-01-09T18:09:05.728Z,31.40
2023-01-09T18:11:33.362Z,30.35
2023-01-09T18:14:01.104Z,30.85
2023-01-09T18:16:29.088Z,31.00
2023-01-09T18:18:58.571Z,31.80
2023-01-09T18:21:28.078Z,32.70
2023-01-09T18:23:56.688Z,33.20
2023-01-09T18:26:24.345Z,32.58
2023-01-09T18:28:55.839Z,32.55
2023-01-09T18:31:24.744Z,33.72
2023-01-09T18:33:53.941Z,36.05
2023-01-09T18:36:23.846Z,36.08
2023-01-09T18:38:53.561Z,35.10
2023-01-09T18:41:21.918Z,35.38
2023-01-09T18:43:54.339Z,34.67
2023-01-09T18:46:24.840Z,36.28
2023-01-09T18:48:57.261Z,35.67
2023-01-09T18:51:26.357Z,37.03
2023-01-09T18:53:54.159Z,37.13
2023-01-09T18:56:21.796Z,37.30
2023-01-09T18:58:49.461Z,35.63
2023-01-09T19:01:17.022Z,38.00
2023-01-09T19:03:45.334Z,36.70
2023-01-09T19:06:13.169Z,38.42
2023-01-09T19:08:40.885Z,35.17
2023-01-09T19:11:08.375Z,37.03
2023-01-09T19:13:37.079Z,37.53
2023-01-09T19:16:06.039Z,37.25
2023-01-09T19:18:35.803Z,37.50
2023-01-09T19:21:20.713Z,36.65
2023-01-09T19:23:49.269Z,37.10
2023-01-09T19:26:23.899Z,36.80
2023-01-09T19:28:55.447Z,34.40
2023-01-09T19:31:24.835Z,34.67
2023-01-09T19:33:53.422Z,35.55
2023-01-09T19:36:21.814Z,34.03
2023-01-09T19:38:49.845Z,33.88
2023-01-09T19:41:19.645Z,32.45
2023-01-09T19:43:48.237Z,33.95
2023-01-09T19:46:21.648Z,35.30
2023-01-09T19:48:49.755Z,35.33
2023-01-09T19:51:20.536Z,35.22
2023-01-09T19:56:29.126Z,33.88
2023-01-09T19:59:01.622Z,33.35
2023-01-09T20:01:31.806Z,35.35
2023-01-09T20:04:05.022Z,35.20
2023-01-09T20:06:32.960Z,35.13
2023-01-09T20:09:03.237Z,35.78
2023-01-09T20:11:31.992Z,36.70
2023-01-09T20:13:59.436Z,36.90
2023-01-09T20:16:30.630Z,38.30
2023-01-09T20:18:59.980Z,36.88
2023-01-09T20:21:28.846Z,37.55
2023-01-09T20:23:58.711Z,38.35
2023-01-09T20:26:27.593Z,37.97
2023-01-09T20:28:55.500Z,39.38
2023-01-09T20:31:25.391Z,38.13
2023-01-09T20:33:52.809Z,40.47
2023-01-09T20:36:29.202Z,40.38
2023-01-09T20:38:58.832Z,41.47
2023-01-09T20:41:26.883Z,40.60
2023-01-09T20:43:56.989Z,41.97
2023-01-09T20:46:26.913Z,44.10
2023-01-09T20:48:58.845Z,43.55
2023-01-09T20:51:26.620Z,43.13
2023-01-09T20:53:58.469Z,43.78
2023-01-09T20:56:27.613Z,44.47
2023-01-09T20:58:55.356Z,47.60
2023-01-09T21:01:23.758Z,49.13
2023-01-09T21:03:52.278Z,42.08
2023-01-09T21:06:22.167Z,41.33
2023-01-09T21:08:51.544Z,38.67
2023-01-09T21:11:21.473Z,38.05
2023-01-09T21:13:49.741Z,36.30
2023-01-09T21:16:20.302Z,39.55
2023-01-09T21:18:48.759Z,37.70
2023-01-09T21:21:23.569Z,35.50
2023-01-09T21:23:53.187Z,37.20
2023-01-09T21:26:23.253Z,35.92
2023-01-09T21:28:54.580Z,36.20
2023-01-09T21:31:34.982Z,35.80
2023-01-09T21:34:05.369Z,36.58
2023-01-09T21:36:35.606Z,37.45
2023-01-09T21:39:07.692Z,37.00
2023-01-09T21:44:40.504Z,36.08
2023-01-09T21:47:08.373Z,36.45
2023-01-09T21:49:40.387Z,37.55
2023-01-09T21:52:08.373Z,39.55
2023-01-09T21:54:35.887Z,37.17
2023-01-09T21:57:04.244Z,36.60
2023-01-09T21:59:31.760Z,37.85
2023-01-09T22:01:59.850Z,38.25
2023-01-09T22:04:28.886Z,37.70
2023-01-09T22:06:58.072Z,38.88
2023-01-09T22:09:25.352Z,39.25
2023-01-09T22:11:52.909Z,38.15
2023-01-09T22:14:20.525Z,37.13
2023-01-09T22:16:48.425Z,37.90
2023-01-09T22:19:19.785Z,37.30
2023-01-09T22:21:47.640Z,40.75
2023-01-09T22:24:16.973Z,37.63
2023-01-09T22:26:45.467Z,38.42
2023-01-09T22:29:12.866Z,37.85
2023-01-09T22:31:40.875Z,38.05
2023-01-09T22:34:10.384Z,39.17
2023-01-09T22:36:39.083Z,38.05
2023-01-09T22:39:06.704Z,39.90
2023-01-09T22:41:34.193Z,38.67
2023-01-09T22:44:01.487Z,36.45
2023-01-09T22:46:29.089Z,38.40
2023-01-09T22:48:56.334Z,37.03
2023-01-09T22:51:24.062Z,38.13
2023-01-09T22:53:52.010Z,40.72
2023-01-09T22:56:21.898Z,38.60
2023-01-09T22:58:54.060Z,39.38
2023-01-09T23:01:22.614Z,36.95
2023-01-09T23:03:50.407Z,35.03
2023-01-09T23:06:20.870Z,36.90
2023-01-09T23:08:51.888Z,37.97
2023-01-09T23:11:43.387Z,36.00
2023-01-09T23:14:11.313Z,36.42
2023-01-09T23:16:39.700Z,35.38
2023-01-09T23:19:09.075Z,35.42
2023-01-09T23:21:37.191Z,37.70
2023-01-09T23:24:06.971Z,38.22
2023-01-09T23:26:35.703Z,36.67
2023-01-09T23:29:02.975Z,36.75
2023-01-09T23:31:30.493Z,36.20
2023-01-09T23:33:57.872Z,36.67
2023-01-09T23:36:25.339Z,37.40
2023-01-09T23:38:52.525Z,40.10
2023-01-09T23:41:22.502Z,38.58
2023-01-09T23:43:49.853Z,36.55
2023-01-09T23:46:17.394Z,37.75
2023-01-09T23:48:44.653Z,38.95
2023-01-09T23:51:12.306Z,38.53
2023-01-09T23:53:39.520Z,36.63
2023-01-09T23:56:07.148Z,35.75
2023-01-09T23:58:34.427Z,39.42
